Time;durP1;ratioP1;P1;durP2;ratioP2;P2;SDS_P1;SDS_P2;PMS_P1;PMS_P2;Temp;Humidity;BMP_temperature;BMP_pressure;BME280_temperature;BME280_humidity;BME280_pressure;Samples;Min_cycle;Max_cycle;Signal;HPM_P1;HPM_P2
2022/12/28 00:02:02;;;;;;;4.13;1.23;;;20.20;47.50;;;;;;6087486;23;20100;-64
2022/12/28 00:04:27;;;;;;;2.17;1.23;;;20.10;47.50;;;;;;6088959;23;20018;-64
2022/12/28 00:06:56;;;;;;;1.50;1.10;;;20.10;47.40;;;;;;6088593;23;20014;-65
2022/12/28 00:09:21;;;;;;;1.48;0.90;;;20.10;47.50;;;;;;6088034;23;20018;-64
2022/12/28 00:11:47;;;;;;;1.20;0.90;;;20.10;47.40;;;;;;6087290;23;20021;-64
2022/12/28 00:14:13;;;;;;;1.48;1.05;;;20.10;47.40;;;;;;6089691;23;20014;-64
2022/12/28 00:16:40;;;;;;;1.67;1.08;;;20.10;47.40;;;;;;6062408;23;20065;-65
2022/12/28 00:19:11;;;;;;;1.73;1.15;;;20.10;47.40;;;;;;6063292;23;20466;-65
2022/12/28 00:21:37;;;;;;;1.83;1.30;;;20.10;47.40;;;;;;6087882;23;20018;-65
2022/12/28 00:24:03;;;;;;;1.50;0.88;;;20.10;47.40;;;;;;6088256;23;20018;-64
2022/12/28 00:26:31;;;;;;;1.92;1.05;;;20.10;47.40;;;;;;6086279;23;20562;-64
2022/12/28 00:28:57;;;;;;;1.50;0.93;;;20.00;47.30;;;;;;6088698;23;20018;-66
2022/12/28 00:31:23;;;;;;;1.00;0.90;;;20.00;47.30;;;;;;6085941;23;20694;-64
2022/12/28 00:33:49;;;;;;;2.55;1.48;;;20.00;47.30;;;;;;6087698;23;20014;-64
2022/12/28 00:36:15;;;;;;;0.90;0.90;;;20.00;47.30;;;;;;6086804;23;20569;-64
2022/12/28 00:38:41;;;;;;;1.00;0.90;;;20.00;47.30;;;;;;6088436;23;20078;-65
2022/12/28 00:41:07;;;;;;;0.98;0.85;;;20.00;47.30;;;;;;6086473;23;20018;-65
2022/12/28 00:43:33;;;;;;;1.10;1.00;;;20.00;47.30;;;;;;6088012;23;20077;-64
2022/12/28 00:45:59;;;;;;;1.48;1.02;;;19.90;47.20;;;;;;6088212;23;20019;-64
2022/12/28 00:48:25;;;;;;;0.93;0.80;;;20.00;47.30;;;;;;6088460;23;20328;-64
2022/12/28 00:50:50;;;;;;;1.30;1.08;;;20.00;47.30;;;;;;6085817;23;20022;-64
2022/12/28 00:53:16;;;;;;;2.65;1.23;;;19.90;47.20;;;;;;6087734;23;20081;-65
2022/12/28 00:55:42;;;;;;;1.98;0.90;;;19.90;47.30;;;;;;6063069;23;20029;-64
2022/12/28 00:58:08;;;;;;;3.17;1.30;;;19.90;47.30;;;;;;6086705;23;20406;-65
2022/12/28 01:00:35;;;;;;;1.02;0.93;;;19.90;47.20;;;;;;6088585;23;20170;-66
2022/12/28 01:03:01;;;;;;;1.45;1.15;;;19.90;47.30;;;;;;6086223;23;20018;-65
2022/12/28 01:05:26;;;;;;;1.33;0.90;;;19.90;47.30;;;;;;6086170;23;20018;-65
2022/12/28 01:07:52;;;;;;;2.05;1.35;;;19.90;47.30;;;;;;6061618;23;20748;-66
2022/12/28 01:10:18;;;;;;;2.13;1.00;;;19.90;47.30;;;;;;6088455;23;20371;-66
2022/12/28 01:12:44;;;;;;;1.73;1.08;;;19.90;47.30;;;;;;6084470;23;20503;-65
2022/12/28 01:15:11;;;;;;;2.90;0.85;;;19.80;47.20;;;;;;6086074;23;20321;-66
2022/12/28 01:17:37;;;;;;;1.98;0.90;;;19.80;47.20;;;;;;6085168;23;20451;-65
2022/12/28 01:20:04;;;;;;;1.23;1.05;;;19.90;47.30;;;;;;6088308;23;20026;-66
2022/12/28 01:22:30;;;;;;;2.75;1.20;;;19.80;47.20;;;;;;6086570;23;20021;-66
2022/12/28 01:24:55;;;;;;;1.10;0.80;;;19.80;47.20;;;;;;6088716;23;20010;-65
2022/12/28 01:27:21;;;;;;;1.15;0.80;;;19.80;47.20;;;;;;6086657;23;20759;-67
2022/12/28 01:29:46;;;;;;;1.05;0.90;;;19.80;47.20;;;;;;6087779;23;20018;-65
2022/12/28 01:32:12;;;;;;;2.08;1.08;;;19.80;47.20;;;;;;6086017;23;20026;-64
2022/12/28 01:34:38;;;;;;;2.03;1.17;;;19.80;47.20;;;;;;6086259;23;20141;-64
2022/12/28 01:37:03;;;;;;;1.65;1.17;;;19.70;47.10;;;;;;6087385;23;20011;-64
2022/12/28 01:39:29;;;;;;;1.73;1.23;;;19.70;47.50;;;;;;6087155;23;20022;-64
2022/12/28 01:41:55;;;;;;;1.38;0.90;;;19.80;47.20;;;;;;6084755;23;20033;-64
2022/12/28 01:44:24;;;;;;;1.65;1.00;;;19.70;47.10;;;;;;6086695;23;20029;-64
2022/12/28 01:47:07;;;;;;;2.30;1.05;;;19.70;47.10;;;;;;6086648;23;20030;-65
2022/12/28 01:49:39;;;;;;;1.10;0.80;;;19.70;47.00;;;;;;6087432;23;20074;-64
2022/12/28 01:52:22;;;;;;;1.13;1.00;;;19.70;47.00;;;;;;6083162;23;20029;-64
2022/12/28 01:55:11;;;;;;;1.55;0.90;;;19.70;47.10;;;;;;6086978;23;20018;-66
2022/12/28 01:57:46;;;;;;;1.42;0.73;;;19.70;47.00;;;;;;6086564;23;20040;-64
2022/12/28 02:00:14;;;;;;;1.63;1.00;;;19.70;47.10;;;;;;6087400;23;20250;-63
2022/12/28 02:02:45;;;;;;;1.85;1.05;;;19.60;47.00;;;;;;6086276;23;20018;-65
2022/12/28 02:05:11;;;;;;;;;;;19.70;47.00;;;;;;6087711;23;20014;-64
2022/12/28 02:07:54;;;;;;;1.65;0.88;;;19.60;47.00;;;;;;6086436;23;19968;-64
2022/12/28 02:10:21;;;;;;;0.95;0.70;;;19.60;47.10;;;;;;6085210;23;20054;-64
2022/12/28 02:12:47;;;;;;;1.55;0.95;;;19.60;47.10;;;;;;6085901;23;20109;-66
2022/12/28 02:15:13;;;;;;;1.45;0.90;;;19.60;47.10;;;;;;6085388;23;20474;-64
2022/12/28 02:17:39;;;;;;;2.33;1.00;;;19.50;47.00;;;;;;6085589;23;20022;-64
2022/12/28 02:20:06;;;;;;;1.38;1.17;;;19.60;47.00;;;;;;6087261;23;20022;-64
2022/12/28 02:22:46;;;;;;;1.23;0.88;;;19.50;47.00;;;;;;6083402;23;20714;-64
2022/12/28 02:25:43;;;;;;;1.48;0.95;;;19.50;46.90;;;;;;6087661;23;20110;-65
2022/12/28 02:28:27;;;;;;;0.85;0.80;;;19.60;46.90;;;;;;6082347;23;20093;-65
2022/12/28 02:31:04;;;;;;;1.30;0.82;;;19.60;47.00;;;;;;6083853;23;20026;-64
2022/12/28 02:33:40;;;;;;;0.80;0.75;;;19.50;47.00;;;;;;6082569;23;20457;-64
2022/12/28 02:36:16;;;;;;;1.17;0.77;;;19.50;47.00;;;;;;6059166;23;20036;-65
2022/12/28 02:38:53;;;;;;;1.15;0.90;;;19.50;47.00;;;;;;6083515;23;20033;-64
2022/12/28 02:41:22;;;;;;;1.27;0.77;;;19.50;47.00;;;;;;6086248;23;20097;-64
2022/12/28 02:43:49;;;;;;;1.85;1.20;;;19.50;47.00;;;;;;6086561;23;20074;-64
2022/12/28 02:52:38;;;;;;;1.02;0.93;;;19.50;47.00;;;;;;6086190;23;20037;-65
2022/12/28 02:58:46;;;;;;;1.17;0.90;;;19.40;47.00;;;;;;6085417;23;20027;-64
2022/12/28 03:01:20;;;;;;;;;;;19.40;47.00;;;;;;6084876;23;20129;-64
2022/12/28 03:04:23;;;;;;;1.40;0.75;;;19.40;47.00;;;;;;6086232;23;20222;-64
2022/12/28 03:10:01;;;;;;;1.00;0.77;;;19.40;47.20;;;;;;6086254;23;20026;-65
2022/12/28 03:12:39;;;;;;;0.77;0.77;;;19.40;47.20;;;;;;6084305;23;20018;-64
2022/12/28 03:15:33;;;;;;;1.63;0.98;;;19.40;47.10;;;;;;6087438;23;20014;-65
2022/12/28 03:32:19;;;;;;;1.30;0.93;;;19.30;47.10;;;;;;6083652;23;20030;-65
2022/12/28 03:34:45;;;;;;;1.30;0.77;;;19.30;47.10;;;;;;6085020;23;20019;-64
2022/12/28 03:37:17;;;;;;;1.63;0.80;;;19.30;47.00;;;;;;6088629;23;20347;-65
2022/12/28 03:40:07;;;;;;;1.42;0.80;;;19.30;47.00;;;;;;6087069;23;20027;-63
2022/12/28 03:45:40;;;;;;;1.30;0.75;;;19.30;47.00;;;;;;6090218;23;20022;-64
2022/12/28 03:48:06;;;;;;;1.08;0.90;;;19.30;47.00;;;;;;6089531;23;20049;-65
2022/12/28 03:50:39;;;;;;;2.05;1.00;;;19.30;46.90;;;;;;6087648;23;20578;-64
2022/12/28 03:53:06;;;;;;;2.15;0.90;;;19.30;47.00;;;;;;6089116;23;20018;-64
2022/12/28 03:55:32;;;;;;;1.33;0.73;;;19.30;47.00;;;;;;6087541;23;20022;-64
2022/12/28 03:57:58;;;;;;;1.50;0.85;;;19.30;46.90;;;;;;6086845;23;20102;-65
2022/12/28 04:00:23;;;;;;;1.38;0.88;;;19.30;46.90;;;;;;6087899;23;20022;-64
2022/12/28 04:02:49;;;;;;;0.60;0.60;;;19.30;46.90;;;;;;6089192;23;20337;-64
2022/12/28 04:05:15;;;;;;;1.15;0.70;;;19.20;46.90;;;;;;6089672;23;20011;-64
2022/12/28 04:07:40;;;;;;;1.25;0.70;;;19.30;46.90;;;;;;6087330;23;20018;-65
2022/12/28 04:10:06;;;;;;;0.73;0.73;;;19.30;47.00;;;;;;6089793;23;20296;-65
2022/12/28 04:12:32;;;;;;;1.58;0.80;;;19.30;46.90;;;;;;6087681;23;20530;-64
2022/12/28 04:14:58;;;;;;;0.90;0.57;;;19.30;46.90;;;;;;6090428;23;20628;-64
2022/12/28 04:17:23;;;;;;;0.82;0.68;;;19.30;47.00;;;;;;6087110;23;20486;-66
2022/12/28 04:19:49;;;;;;;1.38;0.60;;;19.30;47.00;;;;;;6089524;23;20049;-64
2022/12/28 04:22:14;;;;;;;0.70;0.70;;;19.30;46.90;;;;;;6086859;23;20101;-63
2022/12/28 04:24:40;;;;;;;0.82;0.60;;;19.30;47.00;;;;;;6089048;23;20029;-65
2022/12/28 04:27:06;;;;;;;0.57;0.55;;;19.30;47.00;;;;;;6087710;23;20018;-64
2022/12/28 04:29:31;;;;;;;1.40;0.70;;;19.20;46.90;;;;;;6087466;23;20539;-65
2022/12/28 04:31:57;;;;;;;0.70;0.60;;;19.20;46.90;;;;;;6086992;23;20093;-64
2022/12/28 04:34:23;;;;;;;1.10;0.70;;;19.20;46.90;;;;;;6090061;23;20093;-66
2022/12/28 04:36:48;;;;;;;0.85;0.60;;;19.20;46.90;;;;;;6087183;23;20029;-64
2022/12/28 04:39:14;;;;;;;0.95;0.60;;;19.20;47.00;;;;;;6086899;23;20032;-66
2022/12/28 04:41:40;;;;;;;1.20;0.60;;;19.20;47.00;;;;;;6086352;23;20026;-65
2022/12/28 04:44:07;;;;;;;0.98;0.60;;;19.20;47.00;;;;;;6089315;23;20019;-64
2022/12/28 04:46:33;;;;;;;0.93;0.70;;;19.20;47.00;;;;;;6088316;23;20058;-64
2022/12/28 04:48:59;;;;;;;0.60;0.60;;;19.20;47.00;;;;;;6087145;23;20022;-65
2022/12/28 04:51:27;;;;;;;0.60;0.60;;;19.20;47.80;;;;;;6085464;23;20062;-65
2022/12/28 04:53:54;;;;;;;0.73;0.60;;;19.20;47.10;;;;;;6089097;23;20477;-64
2022/12/28 04:56:21;;;;;;;0.68;0.60;;;19.20;47.10;;;;;;6086342;23;20720;-64
2022/12/28 04:58:48;;;;;;;0.55;0.55;;;19.20;47.10;;;;;;6088482;23;20639;-66
2022/12/28 05:01:16;;;;;;;0.80;0.60;;;19.20;47.10;;;;;;6086452;23;20029;-65
2022/12/28 05:03:44;;;;;;;0.57;0.50;;;19.20;47.10;;;;;;6085782;23;20029;-65
2022/12/28 05:06:12;;;;;;;1.17;0.60;;;19.20;47.10;;;;;;6087766;23;20348;-65
2022/12/28 05:08:38;;;;;;;0.50;0.50;;;19.10;47.10;;;;;;6085803;23;20015;-64
2022/12/28 05:11:07;;;;;;;1.05;0.47;;;19.10;47.10;;;;;;6086685;23;20725;-64
2022/12/28 05:13:33;;;;;;;0.65;0.60;;;19.10;47.20;;;;;;6087620;23;20089;-65
2022/12/28 05:16:07;;;;;;;0.52;0.52;;;19.10;47.20;;;;;;6087504;23;20069;-65
2022/12/28 05:18:33;;;;;;;0.40;0.40;;;19.10;47.20;;;;;;6086191;23;20022;-63
2022/12/28 05:21:05;;;;;;;0.60;0.32;;;19.10;47.20;;;;;;6086729;23;20137;-64
2022/12/28 05:23:32;;;;;;;0.52;0.50;;;19.10;47.20;;;;;;6087535;23;20018;-64
2022/12/28 05:25:58;;;;;;;0.50;0.50;;;19.10;47.20;;;;;;6061986;23;20564;-65
2022/12/28 05:28:25;;;;;;;1.30;0.50;;;19.10;47.20;;;;;;6085495;23;20022;-63
2022/12/28 05:30:51;;;;;;;0.52;0.52;;;19.10;47.30;;;;;;6085405;23;20061;-64
2022/12/28 05:33:17;;;;;;;0.80;0.40;;;19.10;47.30;;;;;;6084982;23;20032;-63
2022/12/28 05:35:43;;;;;;;0.38;0.38;;;19.10;47.30;;;;;;6062059;23;20398;-63
2022/12/28 05:38:09;;;;;;;0.50;0.45;;;19.10;47.30;;;;;;6086554;23;20022;-63
2022/12/28 05:40:35;;;;;;;0.45;0.45;;;19.10;47.40;;;;;;6085658;23;20025;-63
2022/12/28 05:43:00;;;;;;;0.50;0.50;;;19.10;47.40;;;;;;6087361;23;20371;-64
2022/12/28 05:45:26;;;;;;;0.60;0.60;;;19.10;47.40;;;;;;6086728;23;20469;-63
2022/12/28 05:47:54;;;;;;;0.95;0.60;;;19.10;47.50;;;;;;6087329;23;20018;-63
2022/12/28 05:50:19;;;;;;;0.65;0.40;;;19.10;47.50;;;;;;6085443;23;20354;-62
2022/12/28 05:52:45;;;;;;;1.55;0.65;;;19.10;47.40;;;;;;6085789;23;20021;-64
2022/12/28 05:55:11;;;;;;;1.50;0.40;;;19.10;47.50;;;;;;6085982;23;20019;-63
2022/12/28 05:57:36;;;;;;;0.52;0.52;;;19.10;47.50;;;;;;6086948;23;20012;-63
2022/12/28 06:00:03;;;;;;;0.60;0.50;;;19.10;47.50;;;;;;6085206;23;20450;-63
2022/12/28 06:02:29;;;;;;;0.40;0.35;;;19.10;47.50;;;;;;6085381;23;20372;-63
2022/12/28 06:04:55;;;;;;;0.55;0.40;;;19.10;47.50;;;;;;6087488;23;20443;-64
2022/12/28 06:07:21;;;;;;;0.40;0.40;;;19.00;47.60;;;;;;6086769;23;20085;-64
2022/12/28 06:09:46;;;;;;;0.60;0.50;;;19.00;47.60;;;;;;6087389;23;20559;-64
2022/12/28 06:12:12;;;;;;;0.68;0.47;;;19.00;48.40;;;;;;6087123;23;20037;-63
2022/12/28 06:14:38;;;;;;;0.30;0.30;;;19.00;47.70;;;;;;6087825;23;20033;-62
2022/12/28 06:17:03;;;;;;;0.40;0.40;;;19.00;47.80;;;;;;6087167;23;20023;-63
2022/12/28 06:19:29;;;;;;;0.32;0.32;;;19.00;47.80;;;;;;6085668;23;20018;-62
2022/12/28 06:21:55;;;;;;;0.75;0.60;;;19.00;47.80;;;;;;6086102;23;20130;-62
2022/12/28 06:24:20;;;;;;;0.50;0.40;;;19.00;48.10;;;;;;6087521;23;20010;-65
2022/12/28 06:26:46;;;;;;;0.80;0.60;;;19.00;47.90;;;;;;6086456;23;20069;-63
2022/12/28 06:29:12;;;;;;;0.75;0.40;;;19.00;47.90;;;;;;6087626;23;20011;-63
2022/12/28 06:31:42;;;;;;;0.40;0.40;;;19.00;48.00;;;;;;6085875;23;20103;-63
2022/12/28 06:34:09;;;;;;;0.30;0.30;;;19.00;48.00;;;;;;6086966;23;20018;-64
2022/12/28 06:36:37;;;;;;;0.70;0.50;;;19.00;48.10;;;;;;6086439;23;20240;-64
2022/12/28 06:39:06;;;;;;;0.50;0.40;;;19.00;48.20;;;;;;6087119;23;20018;-62
2022/12/28 06:41:31;;;;;;;0.40;0.40;;;18.90;48.10;;;;;;6086907;23;20018;-63
2022/12/28 06:43:58;;;;;;;0.35;0.35;;;19.00;48.10;;;;;;6085578;23;20011;-62
2022/12/28 06:46:26;;;;;;;1.27;0.50;;;19.00;48.10;;;;;;6086402;23;20693;-63
2022/12/28 06:48:52;;;;;;;0.40;0.40;;;18.90;48.00;;;;;;6087568;23;20014;-63
2022/12/28 06:51:27;;;;;;;0.40;0.40;;;18.90;48.00;;;;;;6060987;23;20025;-63
2022/12/28 06:53:53;;;;;;;0.47;0.40;;;18.90;48.00;;;;;;6087801;23;20014;-63
2022/12/28 06:56:25;;;;;;;0.55;0.50;;;18.90;48.10;;;;;;6087076;23;20082;-65
2022/12/28 06:58:52;;;;;;;0.60;0.60;;;18.90;48.10;;;;;;6084899;23;20097;-63
2022/12/28 07:01:19;;;;;;;0.47;0.30;;;18.90;48.10;;;;;;6084685;23;20084;-63
2022/12/28 07:03:46;;;;;;;0.40;0.40;;;18.90;48.10;;;;;;6085528;23;20094;-63
2022/12/28 07:06:14;;;;;;;0.40;0.40;;;18.90;48.10;;;;;;6087259;23;20022;-64
2022/12/28 07:08:40;;;;;;;0.63;0.45;;;18.90;48.10;;;;;;6087319;23;20147;-63
2022/12/28 07:11:12;;;;;;;0.45;0.45;;;18.90;48.20;;;;;;6086230;23;20019;-63
2022/12/28 07:13:38;;;;;;;0.77;0.70;;;18.90;48.20;;;;;;6087297;23;20430;-63
2022/12/28 07:16:06;;;;;;;0.50;0.40;;;18.90;48.20;;;;;;6084321;23;20814;-63
2022/12/28 07:18:33;;;;;;;0.47;0.43;;;18.90;48.20;;;;;;6084882;23;20022;-64
2022/12/28 07:21:03;;;;;;;1.30;0.55;;;18.90;48.20;;;;;;6086822;23;20029;-63
2022/12/28 07:23:30;;;;;;;0.50;0.50;;;18.90;48.30;;;;;;6086282;23;20130;-63
2022/12/28 07:26:05;;;;;;;0.80;0.55;;;18.80;48.20;;;;;;6086803;23;20072;-64
2022/12/28 07:28:31;;;;;;;0.47;0.47;;;18.90;48.30;;;;;;6086423;23;20010;-64
2022/12/28 07:30:56;;;;;;;0.57;0.50;;;18.90;48.30;;;;;;6087553;23;20045;-64
2022/12/28 07:33:22;;;;;;;0.77;0.60;;;18.80;48.30;;;;;;6086025;23;20025;-63
2022/12/28 07:35:47;;;;;;;1.30;0.40;;;18.80;48.30;;;;;;6086346;23;20021;-63
2022/12/28 07:38:13;;;;;;;0.73;0.40;;;18.90;48.40;;;;;;6085341;23;20029;-62
2022/12/28 07:40:39;;;;;;;1.08;0.45;;;18.80;48.40;;;;;;6086392;23;20034;-63
2022/12/28 07:43:04;;;;;;;1.05;0.40;;;18.80;48.40;;;;;;6059792;23;20522;-63
2022/12/28 07:45:30;;;;;;;0.40;0.40;;;18.80;48.50;;;;;;6085556;23;20404;-63
2022/12/28 07:47:56;;;;;;;1.58;0.40;;;18.80;48.50;;;;;;6085971;23;20018;-63
2022/12/28 07:50:22;;;;;;;0.77;0.50;;;18.80;48.50;;;;;;6084835;23;20073;-63
2022/12/28 07:52:48;;;;;;;1.15;0.47;;;18.80;48.50;;;;;;6085406;23;20716;-64
2022/12/28 07:55:13;;;;;;;0.57;0.57;;;18.80;49.20;;;;;;6087100;23;20454;-63
2022/12/28 07:57:39;;;;;;;0.47;0.47;;;18.80;48.50;;;;;;6084096;23;20018;-62
2022/12/28 08:00:06;;;;;;;1.27;0.40;;;18.80;48.60;;;;;;6087318;23;20098;-63
2022/12/28 08:02:32;;;;;;;2.35;0.52;;;18.80;48.60;;;;;;6085836;23;20014;-63
2022/12/28 08:04:58;;;;;;;0.60;0.60;;;18.80;48.60;;;;;;6083840;23;20019;-63
2022/12/28 08:07:23;;;;;;;0.80;0.60;;;18.80;48.60;;;;;;6084018;23;20497;-63
2022/12/28 08:09:49;;;;;;;2.38;0.60;;;18.80;48.60;;;;;;6084408;23;20469;-63
2022/12/28 08:12:15;;;;;;;5.53;1.08;;;19.00;48.60;;;;;;6085051;23;20519;-63
2022/12/28 08:14:40;;;;;;;2.08;0.70;;;19.40;47.80;;;;;;6086313;23;20093;-63
2022/12/28 08:17:06;;;;;;;2.50;0.40;;;19.90;46.90;;;;;;6083589;23;20069;-62
2022/12/28 08:19:31;;;;;;;2.17;0.50;;;20.20;46.10;;;;;;6085566;23;20070;-62
2022/12/28 08:21:57;;;;;;;2.08;0.50;;;20.50;45.70;;;;;;6059642;23;20049;-62
2022/12/28 08:24:23;;;;;;;1.58;0.52;;;20.70;45.30;;;;;;6086056;23;20120;-63
2022/12/28 08:26:49;;;;;;;4.53;0.60;;;20.90;45.10;;;;;;6086962;23;20169;-63
2022/12/28 08:29:18;;;;;;;1.80;0.45;;;21.10;44.90;;;;;;6085344;23;20446;-62
2022/12/28 08:31:44;;;;;;;2.25;0.60;;;21.10;44.70;;;;;;6086602;23;20022;-62
2022/12/28 08:34:17;;;;;;;2.53;0.73;;;21.20;44.60;;;;;;6086885;23;20116;-63
2022/12/28 08:36:43;;;;;;;6.57;0.90;;;21.30;44.60;;;;;;6086206;23;20021;-63
2022/12/28 08:39:09;;;;;;;2.90;0.65;;;21.40;44.60;;;;;;6083326;23;20022;-63
2022/12/28 08:41:34;;;;;;;2.72;0.50;;;21.40;44.70;;;;;;6083216;23;20502;-63
2022/12/28 08:44:00;;;;;;;1.88;0.40;;;21.50;44.60;;;;;;6060428;23;20014;-63
2022/12/28 08:46:31;;;;;;;1.88;0.55;;;21.50;44.60;;;;;;6083356;23;20037;-63
2022/12/28 08:48:58;;;;;;;1.15;0.50;;;21.60;44.70;;;;;;6084304;23;20015;-63
2022/12/28 08:51:28;;;;;;;1.27;0.40;;;21.60;44.60;;;;;;6086318;23;20057;-63
2022/12/28 08:53:54;;;;;;;1.83;0.40;;;21.60;44.60;;;;;;6087389;23;20014;-63
2022/12/28 08:56:28;;;;;;;0.52;0.52;;;21.60;44.60;;;;;;6085229;23;20021;-63
2022/12/28 08:58:55;;;;;;;2.35;0.40;;;21.60;44.60;;;;;;6086451;23;20047;-63
2022/12/28 09:01:22;;;;;;;2.63;0.50;;;21.70;44.60;;;;;;6086226;23;20081;-63
2022/12/28 09:03:50;;;;;;;2.15;0.65;;;21.70;44.60;;;;;;6086721;23;20034;-63
2022/12/28 09:06:37;;;;;;;1.70;0.40;;;21.70;44.60;;;;;;6086611;23;20018;-63
2022/12/28 09:09:05;;;;;;;1.30;0.30;;;21.70;44.60;;;;;;6060491;23;20426;-63
2022/12/28 09:11:32;;;;;;;0.80;0.38;;;21.70;44.60;;;;;;6085525;23;20018;-63
2022/12/28 09:13:58;;;;;;;3.05;0.70;;;21.80;44.60;;;;;;6085033;23;20022;-64
2022/12/28 09:16:26;;;;;;;2.53;0.50;;;21.80;45.50;;;;;;6084002;23;20347;-63
2022/12/28 09:18:54;;;;;;;0.52;0.40;;;21.70;44.70;;;;;;6087145;23;20320;-63
2022/12/28 09:21:24;;;;;;;0.95;0.45;;;21.80;44.70;;;;;;6085165;23;20347;-63
2022/12/28 09:23:50;;;;;;;8.27;0.60;;;21.80;44.70;;;;;;6087186;23;20094;-63
2022/12/28 09:26:22;;;;;;;0.85;0.40;;;21.80;44.70;;;;;;6084872;23;20072;-64
2022/12/28 09:28:52;;;;;;;2.42;0.47;;;21.80;44.80;;;;;;6086576;23;20160;-63
2022/12/28 09:31:19;;;;;;;;;;;21.80;44.80;;;;;;6085213;23;20324;-63
2022/12/28 09:34:03;;;;;;;2.10;0.50;;;21.80;44.80;;;;;;6084124;23;19917;-64
2022/12/28 09:36:46;;;;;;;0.70;0.57;;;21.80;44.90;;;;;;6086949;23;20050;-62
2022/12/28 09:39:16;;;;;;;1.65;0.50;;;21.90;45.20;;;;;;6086353;23;20015;-63
2022/12/28 09:41:48;;;;;;;1.15;0.40;;;21.80;45.10;;;;;;6085128;23;20030;-63
2022/12/28 09:44:29;;;;;;;1.75;0.50;;;21.90;45.30;;;;;;6085482;23;20059;-63
2022/12/28 09:46:59;;;;;;;0.75;0.47;;;21.90;45.20;;;;;;6084912;23;20021;-63
2022/12/28 09:49:41;;;;;;;2.22;0.50;;;21.90;45.20;;;;;;6085492;23;20057;-62
2022/12/28 09:52:22;;;;;;;1.27;0.40;;;21.90;45.30;;;;;;6084890;23;20014;-62
2022/12/28 09:54:48;;;;;;;1.38;0.35;;;21.90;45.30;;;;;;6086260;23;20014;-62
2022/12/28 09:57:17;;;;;;;1.50;0.50;;;21.90;45.30;;;;;;6082269;23;20089;-63
2022/12/28 09:59:44;;;;;;;0.40;0.40;;;21.90;45.40;;;;;;6085048;23;20113;-64
2022/12/28 10:02:20;;;;;;;0.63;0.47;;;21.90;45.50;;;;;;6083103;23;20015;-63
2022/12/28 10:04:48;;;;;;;0.95;0.55;;;21.90;45.60;;;;;;6084112;23;20081;-62
2022/12/28 10:07:14;;;;;;;1.58;0.60;;;21.90;45.60;;;;;;6084533;23;20033;-63
2022/12/28 10:09:40;;;;;;;1.33;0.50;;;21.90;45.60;;;;;;6083695;23;20026;-62
2022/12/28 10:12:16;;;;;;;2.10;0.60;;;21.90;45.70;;;;;;6084968;23;20022;-61
2022/12/28 10:14:45;;;;;;;1.73;0.50;;;21.90;45.70;;;;;;6086667;23;20358;-63
2022/12/28 10:17:13;;;;;;;3.08;0.57;;;21.90;45.60;;;;;;6084340;23;20383;-63
2022/12/28 10:19:40;;;;;;;3.63;0.50;;;21.90;45.70;;;;;;6086145;23;20018;-62
2022/12/28 10:22:10;;;;;;;2.35;0.70;;;21.90;45.60;;;;;;6085548;23;20014;-62
2022/12/28 10:24:38;;;;;;;0.60;0.60;;;21.90;45.60;;;;;;6084494;23;20046;-62
2022/12/28 10:27:05;;;;;;;1.23;0.63;;;21.90;45.50;;;;;;6083653;23;20064;-62
2022/12/28 10:29:32;;;;;;;2.72;0.40;;;21.90;45.50;;;;;;6085682;23;20029;-61
2022/12/28 10:32:05;;;;;;;1.02;0.43;;;22.00;45.40;;;;;;6086800;23;20049;-62
2022/12/28 10:34:33;;;;;;;1.75;0.60;;;21.90;45.30;;;;;;6085568;23;20045;-61
2022/12/28 10:37:15;;;;;;;2.47;0.52;;;22.00;45.30;;;;;;6084914;23;20025;-62
2022/12/28 10:39:52;;;;;;;1.15;0.47;;;22.00;45.20;;;;;;6059917;23;20389;-62
2022/12/28 10:42:40;;;;;;;0.70;0.52;;;21.90;45.30;;;;;;6086188;23;20463;-62
2022/12/28 10:45:17;;;;;;;1.95;0.60;;;21.90;45.40;;;;;;6085861;23;20018;-63
2022/12/28 10:47:47;;;;;;;2.45;0.60;;;21.90;45.40;;;;;;6086162;23;20022;-62
2022/12/28 10:50:43;;;;;;;1.70;0.53;;;22.00;45.50;;;;;;6087263;23;20025;-61
2022/12/28 10:53:38;;;;;;;1.20;0.45;;;22.00;45.50;;;;;;6086947;23;20548;-61
2022/12/28 10:56:05;;;;;;;0.90;0.50;;;22.00;45.70;;;;;;6068114;23;20407;-61
2022/12/28 10:58:32;;;;;;;2.38;0.40;;;21.90;45.70;;;;;;6085055;23;20353;-63
2022/12/28 11:01:05;;;;;;;2.05;0.50;;;22.00;45.80;;;;;;6061232;23;20018;-61
2022/12/28 11:03:34;;;;;;;0.77;0.40;;;22.00;45.90;;;;;;6086908;23;20018;-62
2022/12/28 11:06:15;;;;;;;0.50;0.50;;;22.00;45.90;;;;;;6085322;23;20097;-62
2022/12/28 11:08:43;;;;;;;1.98;0.60;;;22.10;46.10;;;;;;6084963;23;20347;-61
2022/12/28 11:11:20;;;;;;;1.75;0.40;;;22.00;46.10;;;;;;6086040;23;20046;-62
2022/12/28 11:13:54;;;;;;;2.58;0.52;;;22.10;46.30;;;;;;6061194;23;20430;-62
2022/12/28 11:16:20;;;;;;;1.30;0.40;;;22.10;46.30;;;;;;6084597;23;20331;-59
2022/12/28 11:18:46;;;;;;;1.27;0.60;;;22.10;46.30;;;;;;6085377;23;20101;-62
2022/12/28 11:21:19;;;;;;;1.45;0.57;;;22.10;46.40;;;;;;6085924;23;20018;-62
2022/12/28 11:23:46;;;;;;;0.65;0.40;;;22.10;46.50;;;;;;6086817;23;20351;-63
2022/12/28 11:26:12;;;;;;;0.45;0.40;;;22.10;46.50;;;;;;6086713;23;20014;-60
2022/12/28 11:28:43;;;;;;;1.05;0.32;;;22.00;46.60;;;;;;6087572;23;20053;-62
2022/12/28 11:31:20;;;;;;;0.63;0.40;;;22.10;46.60;;;;;;6086197;23;20014;-64
2022/12/28 11:33:50;;;;;;;1.73;0.60;;;22.00;46.60;;;;;;6061134;23;20110;-65
2022/12/28 11:36:22;;;;;;;1.45;0.55;;;22.00;46.70;;;;;;6086466;23;20399;-65
2022/12/28 11:38:50;;;;;;;2.28;0.60;;;22.10;46.80;;;;;;6085650;23;20029;-64
2022/12/28 11:41:22;;;;;;;1.20;0.50;;;22.10;47.10;;;;;;6084443;23;20526;-65
2022/12/28 11:44:00;;;;;;;1.70;0.70;;;22.00;47.10;;;;;;6086601;23;20449;-64
2022/12/28 11:46:25;;;;;;;1.63;0.68;;;22.10;47.30;;;;;;6085403;23;20015;-64
2022/12/28 11:49:04;;;;;;;1.17;0.50;;;22.10;47.30;;;;;;6085709;23;20018;-65
2022/12/28 11:51:31;;;;;;;0.82;0.47;;;22.10;47.40;;;;;;6085971;23;20018;-64
2022/12/28 11:54:03;;;;;;;2.05;0.50;;;22.10;47.50;;;;;;6085097;23;20014;-65
2022/12/28 11:56:44;;;;;;;1.42;0.50;;;22.10;47.50;;;;;;6085405;23;20018;-64
2022/12/28 11:59:23;;;;;;;;;;;22.10;47.60;;;;;;6088030;23;20025;-65
2022/12/28 12:01:53;;;;;;;1.00;0.60;;;22.10;47.80;;;;;;6087337;23;19940;-64
2022/12/28 12:04:41;;;;;;;3.42;0.55;;;22.10;47.60;;;;;;6087503;23;20320;-64
2022/12/28 12:07:24;;;;;;;2.55;0.60;;;22.10;47.80;;;;;;6088899;23;20130;-65
2022/12/28 12:10:13;;;;;;;0.45;0.30;;;22.10;47.70;;;;;;6088858;23;20025;-64
2022/12/28 12:12:48;;;;;;;1.55;0.55;;;22.10;47.80;;;;;;6087259;23;20018;-63
2022/12/28 12:15:38;;;;;;;1.95;0.50;;;22.10;47.70;;;;;;6089312;23;20018;-63
2022/12/28 12:18:13;;;;;;;2.03;0.55;;;22.10;47.60;;;;;;6085757;23;20022;-65
2022/12/28 12:20:44;;;;;;;7.43;1.10;;;22.10;47.60;;;;;;6088918;23;20338;-64
2022/12/28 12:23:35;;;;;;;4.85;0.80;;;22.10;47.60;;;;;;6087515;23;20022;-63
2022/12/28 12:26:19;;;;;;;6.20;0.75;;;22.10;47.50;;;;;;6087313;23;20029;-63
2022/12/28 12:28:51;;;;;;;4.18;0.68;;;22.20;47.40;;;;;;6086727;23;20081;-63
2022/12/28 12:31:55;;;;;;;7.10;0.60;;;22.20;47.40;;;;;;6086548;23;20018;-63
2022/12/28 12:34:44;;;;;;;1.75;0.60;;;22.20;47.30;;;;;;6052818;23;20057;-63
2022/12/28 12:37:09;;;;;;;2.83;0.50;;;22.20;47.30;;;;;;6088515;23;20022;-63
2022/12/28 12:40:08;;;;;;;1.85;0.50;;;22.20;47.30;;;;;;6088605;23;20030;-62
2022/12/28 12:42:55;;;;;;;1.00;0.50;;;22.10;47.20;;;;;;6088950;23;20085;-62
2022/12/28 12:45:44;;;;;;;1.98;0.35;;;22.10;47.20;;;;;;6086540;23;20014;-64
2022/12/28 12:48:37;;;;;;;4.65;0.60;;;22.10;47.10;;;;;;6076703;23;20019;-62
2022/12/28 12:51:09;;;;;;;3.70;0.60;;;22.10;47.20;;;;;;6086998;23;20027;-63
2022/12/28 12:53:50;;;;;;;0.82;0.47;;;22.10;47.10;;;;;;6087120;23;20018;-64
2022/12/28 12:56:34;;;;;;;1.25;0.47;;;22.10;46.90;;;;;;6088371;23;20010;-63
2022/12/28 12:59:28;;;;;;;2.47;0.60;;;22.10;46.90;;;;;;6089107;23;20026;-64
2022/12/28 13:02:12;;;;;;;1.33;0.68;;;22.10;46.80;;;;;;6086462;23;20087;-65
2022/12/28 13:04:44;;;;;;;4.00;0.70;;;22.20;46.90;;;;;;6089352;23;20014;-63
2022/12/28 13:07:29;;;;;;;2.35;0.40;;;22.10;46.90;;;;;;6088633;23;20010;-64
2022/12/28 13:09:59;;;;;;;2.55;0.60;;;22.10;46.80;;;;;;6088399;23;20019;-65
2022/12/28 13:12:25;;;;;;;5.85;0.40;;;22.10;46.90;;;;;;6086205;23;20014;-65
2022/12/28 13:15:02;;;;;;;0.32;0.32;;;22.10;47.00;;;;;;6087825;23;20493;-64
2022/12/28 13:17:28;;;;;;;1.50;0.50;;;22.10;46.90;;;;;;6088292;23;20018;-63
2022/12/28 13:20:18;;;;;;;3.00;0.75;;;22.20;46.90;;;;;;6089757;23;20030;-63
2022/12/28 13:22:46;;;;;;;0.73;0.40;;;22.20;46.70;;;;;;6085507;23;20227;-63
2022/12/28 13:25:28;;;;;;;1.38;0.60;;;22.20;46.70;;;;;;6088264;23;20018;-62
2022/12/28 13:27:56;;;;;;;2.90;0.73;;;22.20;46.70;;;;;;6086187;23;20026;-63
2022/12/28 13:30:23;;;;;;;2.85;0.70;;;22.20;46.80;;;;;;6085871;23;20018;-61
2022/12/28 13:32:54;;;;;;;3.28;0.40;;;22.20;46.70;;;;;;6086883;23;20683;-64
2022/12/28 13:35:23;;;;;;;2.83;0.55;;;22.20;46.70;;;;;;6087702;23;20379;-64